sensor_id;sensor_type;location;lat;lon;timestamp;pressure;altitude;pressure_sealevel;temperature;humidity
63019;BME280;49105;46.046;10.760;2024-03-25T00:01:15;94918.88;;;2.49;52.44
63019;BME280;49105;46.046;10.760;2024-03-25T00:03:41;94913.00;;;2.42;53.01
63019;BME280;49105;46.046;10.760;2024-03-25T00:06:07;94908.59;;;2.43;52.96
63019;BME280;49105;46.046;10.760;2024-03-25T00:08:32;94908.34;;;2.44;53.01
63019;BME280;49105;46.046;10.760;2024-03-25T00:10:59;94916.03;;;2.34;53.37
63019;BME280;49105;46.046;10.760;2024-03-25T00:13:25;94917.06;;;2.33;53.33
63019;BME280;49105;46.046;10.760;2024-03-25T00:15:51;94915.09;;;2.40;53.15
63019;BME280;49105;46.046;10.760;2024-03-25T00:18:17;94911.91;;;2.38;52.69
63019;BME280;49105;46.046;10.760;2024-03-25T00:20:43;94924.44;;;2.36;52.82
63019;BME280;49105;46.046;10.760;2024-03-25T00:23:09;94909.56;;;2.37;52.44
63019;BME280;49105;46.046;10.760;2024-03-25T00:25:34;94914.31;;;2.23;53.97
63019;BME280;49105;46.046;10.760;2024-03-25T00:28:00;94901.56;;;2.10;54.67
63019;BME280;49105;46.046;10.760;2024-03-25T00:30:25;94907.81;;;2.09;55.21
63019;BME280;49105;46.046;10.760;2024-03-25T00:32:51;94905.84;;;2.16;54.64
63019;BME280;49105;46.046;10.760;2024-03-25T00:35:16;94911.19;;;2.09;54.67
63019;BME280;49105;46.046;10.760;2024-03-25T00:37:43;94903.88;;;2.06;54.94
63019;BME280;49105;46.046;10.760;2024-03-25T00:40:09;94909.69;;;2.13;54.92
63019;BME280;49105;46.046;10.760;2024-03-25T00:42:34;94915.31;;;2.22;54.31
63019;BME280;49105;46.046;10.760;2024-03-25T01:05:09;94913.19;;;2.36;53.37
63019;BME280;49105;46.046;10.760;2024-03-25T01:07:35;94920.72;;;2.32;53.29
63019;BME280;49105;46.046;10.760;2024-03-25T01:10:01;94918.56;;;2.29;53.45
63019;BME280;49105;46.046;10.760;2024-03-25T01:12:27;94922.38;;;2.21;53.51
63019;BME280;49105;46.046;10.760;2024-03-25T01:14:53;94919.81;;;2.10;53.98
63019;BME280;49105;46.046;10.760;2024-03-25T01:17:19;94919.34;;;2.13;53.85
63019;BME280;49105;46.046;10.760;2024-03-25T01:19:44;94920.00;;;2.20;53.25
63019;BME280;49105;46.046;10.760;2024-03-25T01:22:10;94920.47;;;2.17;52.82
63019;BME280;49105;46.046;10.760;2024-03-25T01:24:36;94917.00;;;2.11;52.90
63019;BME280;49105;46.046;10.760;2024-03-25T01:27:02;94922.59;;;1.86;54.28
63019;BME280;49105;46.046;10.760;2024-03-25T01:29:28;94922.16;;;1.61;55.20
63019;BME280;49105;46.046;10.760;2024-03-25T01:31:53;94923.56;;;1.68;55.10
63019;BME280;49105;46.046;10.760;2024-03-25T01:46:51;94905.03;;;1.98;55.15
63019;BME280;49105;46.046;10.760;2024-03-25T01:49:18;94914.38;;;1.94;55.38
63019;BME280;49105;46.046;10.760;2024-03-25T01:51:45;94919.72;;;1.88;54.89
63019;BME280;49105;46.046;10.760;2024-03-25T01:54:11;94919.41;;;1.84;54.71
63019;BME280;49105;46.046;10.760;2024-03-25T01:56:41;94921.00;;;1.85;54.62
63019;BME280;49105;46.046;10.760;2024-03-25T01:59:07;94925.31;;;1.80;54.64
63019;BME280;49105;46.046;10.760;2024-03-25T02:01:33;94924.88;;;1.83;54.43
63019;BME280;49105;46.046;10.760;2024-03-25T02:03:59;94925.97;;;1.87;54.60
63019;BME280;49105;46.046;10.760;2024-03-25T02:06:27;94928.50;;;1.82;54.63
63019;BME280;49105;46.046;10.760;2024-03-25T02:08:55;94928.66;;;1.75;54.43
63019;BME280;49105;46.046;10.760;2024-03-25T02:11:22;94936.31;;;1.65;54.67
63019;BME280;49105;46.046;10.760;2024-03-25T02:13:50;94926.09;;;1.63;55.10
63019;BME280;49105;46.046;10.760;2024-03-25T02:16:16;94922.31;;;1.71;54.12
63019;BME280;49105;46.046;10.760;2024-03-25T02:18:42;94922.31;;;1.71;53.88
63019;BME280;49105;46.046;10.760;2024-03-25T02:21:08;94918.66;;;1.72;54.04
63019;BME280;49105;46.046;10.760;2024-03-25T02:23:34;94918.97;;;1.59;54.22
63019;BME280;49105;46.046;10.760;2024-03-25T02:26:00;94915.06;;;1.44;54.84
63019;BME280;49105;46.046;10.760;2024-03-25T02:28:26;94910.84;;;1.43;55.41
63019;BME280;49105;46.046;10.760;2024-03-25T02:30:52;94924.91;;;1.42;55.20
63019;BME280;49105;46.046;10.760;2024-03-25T02:33:17;94920.28;;;1.44;55.57
63019;BME280;49105;46.046;10.760;2024-03-25T02:35:43;94932.38;;;1.51;55.50
63019;BME280;49105;46.046;10.760;2024-03-25T02:38:09;94926.03;;;1.46;55.30
63019;BME280;49105;46.046;10.760;2024-03-25T02:40:35;94923.06;;;1.55;54.43
63019;BME280;49105;46.046;10.760;2024-03-25T02:43:01;94912.16;;;1.58;54.05
63019;BME280;49105;46.046;10.760;2024-03-25T02:45:28;94908.06;;;1.62;53.78
63019;BME280;49105;46.046;10.760;2024-03-25T02:47:53;94912.50;;;1.61;53.88
63019;BME280;49105;46.046;10.760;2024-03-25T02:50:19;94917.59;;;1.56;54.34
63019;BME280;49105;46.046;10.760;2024-03-25T02:52:45;94922.69;;;1.34;54.36
63019;BME280;49105;46.046;10.760;2024-03-25T02:55:10;94919.56;;;1.20;55.44
63019;BME280;49105;46.046;10.760;2024-03-25T02:57:36;94921.72;;;1.23;55.83
63019;BME280;49105;46.046;10.760;2024-03-25T03:00:02;94924.53;;;1.22;56.00
63019;BME280;49105;46.046;10.760;2024-03-25T03:02:29;94929.53;;;1.23;56.08
63019;BME280;49105;46.046;10.760;2024-03-25T03:04:55;94930.53;;;1.22;55.69
63019;BME280;49105;46.046;10.760;2024-03-25T03:07:21;94926.94;;;1.12;55.38
63019;BME280;49105;46.046;10.760;2024-03-25T03:09:46;94927.75;;;1.01;56.19
63019;BME280;49105;46.046;10.760;2024-03-25T03:12:12;94915.84;;;1.05;55.60
63019;BME280;49105;46.046;10.760;2024-03-25T03:14:37;94914.56;;;1.19;54.94
63019;BME280;49105;46.046;10.760;2024-03-25T03:17:04;94915.81;;;1.28;54.67
63019;BME280;49105;46.046;10.760;2024-03-25T03:19:31;94919.91;;;1.12;55.67
63019;BME280;49105;46.046;10.760;2024-03-25T03:21:57;94926.53;;;1.03;56.33
63019;BME280;49105;46.046;10.760;2024-03-25T03:24:23;94927.75;;;1.01;56.70
63019;BME280;49105;46.046;10.760;2024-03-25T03:26:49;94927.44;;;0.97;56.32
63019;BME280;49105;46.046;10.760;2024-03-25T03:29:15;94927.53;;;0.90;56.48
63019;BME280;49105;46.046;10.760;2024-03-25T03:31:41;94926.97;;;1.00;56.19
63019;BME280;49105;46.046;10.760;2024-03-25T03:34:07;94930.38;;;1.01;56.48
63019;BME280;49105;46.046;10.760;2024-03-25T03:36:32;94935.69;;;0.94;56.08
63019;BME280;49105;46.046;10.760;2024-03-25T03:38:58;94931.50;;;0.93;56.27
63019;BME280;49105;46.046;10.760;2024-03-25T03:41:24;94930.91;;;1.03;56.10
63019;BME280;49105;46.046;10.760;2024-03-25T03:43:50;94930.91;;;1.03;56.35
63019;BME280;49105;46.046;10.760;2024-03-25T03:46:15;94934.81;;;0.88;56.51
63019;BME280;49105;46.046;10.760;2024-03-25T03:48:41;94926.09;;;0.71;57.59
63019;BME280;49105;46.046;10.760;2024-03-25T03:51:08;94935.41;;;0.67;58.42
63019;BME280;49105;46.046;10.760;2024-03-25T03:53:34;94940.47;;;0.73;58.02
63019;BME280;49105;46.046;10.760;2024-03-25T03:56:03;94938.66;;;0.86;57.57
63019;BME280;49105;46.046;10.760;2024-03-25T03:58:32;94947.03;;;0.88;57.33
63019;BME280;49105;46.046;10.760;2024-03-25T04:00:58;94944.69;;;0.74;57.69
63019;BME280;49105;46.046;10.760;2024-03-25T04:03:24;94951.13;;;0.48;58.56
63019;BME280;49105;46.046;10.760;2024-03-25T04:05:50;94950.56;;;0.46;58.60
63019;BME280;49105;46.046;10.760;2024-03-25T04:08:16;94947.63;;;0.55;58.94
63019;BME280;49105;46.046;10.760;2024-03-25T04:10:43;94935.94;;;0.69;58.55
63019;BME280;49105;46.046;10.760;2024-03-25T04:13:09;94940.13;;;0.70;57.88
63019;BME280;49105;46.046;10.760;2024-03-25T04:15:37;94932.31;;;0.70;57.69
63019;BME280;49105;46.046;10.760;2024-03-25T04:18:03;94940.25;;;0.75;57.54
63019;BME280;49105;46.046;10.760;2024-03-25T04:20:29;94942.28;;;0.73;57.47
63019;BME280;49105;46.046;10.760;2024-03-25T04:22:56;94938.00;;;0.67;57.30
63019;BME280;49105;46.046;10.760;2024-03-25T04:25:22;94935.50;;;0.60;57.66
63019;BME280;49105;46.046;10.760;2024-03-25T04:27:47;94939.69;;;0.61;57.51
63019;BME280;49105;46.046;10.760;2024-03-25T04:30:13;94936.88;;;0.63;57.61
63019;BME280;49105;46.046;10.760;2024-03-25T04:32:38;94948.97;;;0.69;57.17
63019;BME280;49105;46.046;10.760;2024-03-25T04:35:08;94946.81;;;0.78;56.72
63019;BME280;49105;46.046;10.760;2024-03-25T04:37:34;94947.72;;;0.83;56.70
63019;BME280;49105;46.046;10.760;2024-03-25T04:40:02;94953.94;;;0.82;56.37
63019;BME280;49105;46.046;10.760;2024-03-25T04:42:27;94958.16;;;0.83;56.69
63019;BME280;49105;46.046;10.760;2024-03-25T04:44:53;94964.94;;;0.84;56.92
63019;BME280;49105;46.046;10.760;2024-03-25T04:47:19;94960.75;;;0.83;56.44
63019;BME280;49105;46.046;10.760;2024-03-25T04:49:44;94959.03;;;0.77;56.29
63019;BME280;49105;46.046;10.760;2024-03-25T04:52:14;94947.72;;;0.60;57.41
63019;BME280;49105;46.046;10.760;2024-03-25T04:54:44;94955.53;;;0.48;57.98
63019;BME280;49105;46.046;10.760;2024-03-25T04:57:10;94960.53;;;0.49;58.27
63019;BME280;49105;46.046;10.760;2024-03-25T04:59:36;94968.00;;;0.58;57.86
63019;BME280;49105;46.046;10.760;2024-03-25T05:02:01;94964.50;;;0.64;57.06
63019;BME280;49105;46.046;10.760;2024-03-25T05:04:27;94976.94;;;0.50;57.75
63019;BME280;49105;46.046;10.760;2024-03-25T05:06:52;94982.00;;;0.45;57.91
63019;BME280;49105;46.046;10.760;2024-03-25T05:09:18;94972.63;;;0.44;58.16
63019;BME280;49105;46.046;10.760;2024-03-25T05:11:44;94977.63;;;0.45;58.00
63019;BME280;49105;46.046;10.760;2024-03-25T05:14:10;94985.31;;;0.52;57.88
63019;BME280;49105;46.046;10.760;2024-03-25T05:16:36;94985.75;;;0.37;57.85
63019;BME280;49105;46.046;10.760;2024-03-25T05:19:03;94988.00;;;0.22;59.18
63019;BME280;49105;46.046;10.760;2024-03-25T05:21:30;94988.75;;;0.11;60.24
63019;BME280;49105;46.046;10.760;2024-03-25T05:23:55;94985.59;;;0.09;60.15
63019;BME280;49105;46.046;10.760;2024-03-25T05:26:21;94984.44;;;0.16;59.24
63019;BME280;49105;46.046;10.760;2024-03-25T05:28:55;94982.66;;;0.29;59.17
63019;BME280;49105;46.046;10.760;2024-03-25T05:31:21;94986.31;;;0.39;58.71
63019;BME280;49105;46.046;10.760;2024-03-25T05:33:47;94988.59;;;0.47;58.58
63019;BME280;49105;46.046;10.760;2024-03-25T05:36:13;94994.84;;;0.58;58.51
63019;BME280;49105;46.046;10.760;2024-03-25T05:38:40;94993.69;;;0.66;58.08
63019;BME280;49105;46.046;10.760;2024-03-25T05:41:07;94991.09;;;0.66;57.93
63019;BME280;49105;46.046;10.760;2024-03-25T05:43:32;95003.88;;;0.56;58.31
63019;BME280;49105;46.046;10.760;2024-03-25T05:45:58;95002.75;;;0.52;58.51
63019;BME280;49105;46.046;10.760;2024-03-25T05:48:25;95001.84;;;0.58;58.04
63019;BME280;49105;46.046;10.760;2024-03-25T05:51:06;95004.56;;;0.63;58.31
63019;BME280;49105;46.046;10.760;2024-03-25T05:53:35;95004.34;;;0.64;57.99
63019;BME280;49105;46.046;10.760;2024-03-25T05:56:03;95003.00;;;0.62;57.82
63019;BME280;49105;46.046;10.760;2024-03-25T05:58:29;95001.72;;;0.64;57.69
63019;BME280;49105;46.046;10.760;2024-03-25T06:00:55;95000.59;;;0.72;57.17
63019;BME280;49105;46.046;10.760;2024-03-25T06:03:21;95003.91;;;0.79;57.22
63019;BME280;49105;46.046;10.760;2024-03-25T06:05:48;95002.41;;;0.71;56.59
63019;BME280;49105;46.046;10.760;2024-03-25T06:08:14;95009.31;;;0.66;57.14
63019;BME280;49105;46.046;10.760;2024-03-25T06:10:52;95001.41;;;0.72;57.53
63019;BME280;49105;46.046;10.760;2024-03-25T06:13:18;95010.66;;;0.57;58.04
63019;BME280;49105;46.046;10.760;2024-03-25T06:15:44;95011.22;;;0.47;58.42
63019;BME280;49105;46.046;10.760;2024-03-25T06:18:09;95017.66;;;0.44;58.53
63019;BME280;49105;46.046;10.760;2024-03-25T06:20:36;95013.16;;;0.52;58.81
63019;BME280;49105;46.046;10.760;2024-03-25T06:23:02;95021.09;;;0.57;58.39
63019;BME280;49105;46.046;10.760;2024-03-25T06:25:28;95013.41;;;0.62;58.29
63019;BME280;49105;46.046;10.760;2024-03-25T06:27:56;95012.50;;;0.68;58.52
63019;BME280;49105;46.046;10.760;2024-03-25T06:30:22;95018.16;;;0.65;58.16
63019;BME280;49105;46.046;10.760;2024-03-25T06:33:06;95010.69;;;0.80;58.51
63019;BME280;49105;46.046;10.760;2024-03-25T06:35:50;95006.72;;;1.13;57.54
63019;BME280;49105;46.046;10.760;2024-03-25T06:38:17;95007.13;;;1.33;56.67
63019;BME280;49105;46.046;10.760;2024-03-25T06:40:47;95006.63;;;1.48;56.47
63019;BME280;49105;46.046;10.760;2024-03-25T06:43:13;95006.72;;;1.65;55.62
63019;BME280;49105;46.046;10.760;2024-03-25T06:45:42;94999.78;;;1.70;55.26
63019;BME280;49105;46.046;10.760;2024-03-25T06:48:08;94998.44;;;1.56;56.50
63019;BME280;49105;46.046;10.760;2024-03-25T06:50:37;94993.34;;;1.61;56.58
63019;BME280;49105;46.046;10.760;2024-03-25T06:53:02;94993.41;;;1.78;56.98
63019;BME280;49105;46.046;10.760;2024-03-25T06:55:29;94993.13;;;1.91;56.40
63019;BME280;49105;46.046;10.760;2024-03-25T06:57:56;94992.75;;;1.99;56.26
63019;BME280;49105;46.046;10.760;2024-03-25T07:00:21;94985.25;;;2.20;56.24
63019;BME280;49105;46.046;10.760;2024-03-25T07:02:48;94986.53;;;2.34;56.21
63019;BME280;49105;46.046;10.760;2024-03-25T07:05:14;94986.56;;;2.51;55.88
63019;BME280;49105;46.046;10.760;2024-03-25T07:07:39;94986.25;;;2.64;55.37
63019;BME280;49105;46.046;10.760;2024-03-25T07:10:06;94987.72;;;2.77;54.99
63019;BME280;49105;46.046;10.760;2024-03-25T07:12:33;94980.44;;;2.79;55.20
63019;BME280;49105;46.046;10.760;2024-03-25T07:14:59;94978.69;;;2.85;55.07
63019;BME280;49105;46.046;10.760;2024-03-25T07:17:25;94970.44;;;2.93;55.36
63019;BME280;49105;46.046;10.760;2024-03-25T07:19:51;94972.88;;;2.99;55.17
63019;BME280;49105;46.046;10.760;2024-03-25T07:22:17;94969.38;;;3.11;55.17
63019;BME280;49105;46.046;10.760;2024-03-25T07:24:43;94969.56;;;3.26;54.77
63019;BME280;49105;46.046;10.760;2024-03-25T07:27:09;94963.72;;;3.41;53.92
63019;BME280;49105;46.046;10.760;2024-03-25T07:29:35;94974.28;;;3.46;53.51
63019;BME280;49105;46.046;10.760;2024-03-25T07:32:00;94963.91;;;3.56;52.83
63019;BME280;49105;46.046;10.760;2024-03-25T07:34:26;94970.72;;;3.57;51.36
63019;BME280;49105;46.046;10.760;2024-03-25T07:36:52;94967.44;;;3.67;50.56
63019;BME280;49105;46.046;10.760;2024-03-25T07:39:18;94972.72;;;3.72;48.99
63019;BME280;49105;46.046;10.760;2024-03-25T07:41:44;94967.31;;;3.79;48.82
63019;BME280;49105;46.046;10.760;2024-03-25T07:44:09;94961.06;;;3.85;48.25
63019;BME280;49105;46.046;10.760;2024-03-25T07:46:35;94960.38;;;3.94;47.96
63019;BME280;49105;46.046;10.760;2024-03-25T07:49:01;94954.69;;;4.03;47.72
63019;BME280;49105;46.046;10.760;2024-03-25T07:51:27;94942.78;;;4.17;47.93
63019;BME280;49105;46.046;10.760;2024-03-25T07:53:53;94954.44;;;4.31;47.72
63019;BME280;49105;46.046;10.760;2024-03-25T07:56:19;94957.16;;;4.41;46.93
63019;BME280;49105;46.046;10.760;2024-03-25T07:58:44;94959.84;;;4.52;47.02
63019;BME280;49105;46.046;10.760;2024-03-25T08:01:10;94943.94;;;4.63;46.84
63019;BME280;49105;46.046;10.760;2024-03-25T08:03:36;94953.69;;;4.73;46.77
63019;BME280;49105;46.046;10.760;2024-03-25T08:06:02;94945.91;;;4.83;46.34
63019;BME280;49105;46.046;10.760;2024-03-25T08:08:28;94940.97;;;4.92;46.32
63019;BME280;49105;46.046;10.760;2024-03-25T08:10:54;94936.31;;;4.99;46.74
63019;BME280;49105;46.046;10.760;2024-03-25T08:13:21;94930.28;;;5.04;46.85
63019;BME280;49105;46.046;10.760;2024-03-25T08:15:47;94931.09;;;5.09;46.25
63019;BME280;49105;46.046;10.760;2024-03-25T08:18:13;94930.91;;;5.21;45.74
63019;BME280;49105;46.046;10.760;2024-03-25T08:20:38;94931.69;;;5.21;45.17
63019;BME280;49105;46.046;10.760;2024-03-25T08:23:04;94934.59;;;5.30;45.28
63019;BME280;49105;46.046;10.760;2024-03-25T08:25:30;94937.81;;;5.42;44.02
63019;BME280;49105;46.046;10.760;2024-03-25T08:27:56;94936.72;;;5.38;43.03
63019;BME280;49105;46.046;10.760;2024-03-25T08:30:22;94934.44;;;5.52;43.46
63019;BME280;49105;46.046;10.760;2024-03-25T08:32:48;94938.94;;;5.67;43.38
63019;BME280;49105;46.046;10.760;2024-03-25T08:35:14;94935.28;;;5.73;42.59
63019;BME280;49105;46.046;10.760;2024-03-25T08:37:40;94943.97;;;5.84;42.79
63019;BME280;49105;46.046;10.760;2024-03-25T08:40:06;94934.28;;;5.89;41.59
63019;BME280;49105;46.046;10.760;2024-03-25T08:42:32;94937.47;;;5.96;42.02
63019;BME280;49105;46.046;10.760;2024-03-25T08:44:59;94938.28;;;6.07;42.51
63019;BME280;49105;46.046;10.760;2024-03-25T08:47:25;94926.47;;;6.20;41.74
63019;BME280;49105;46.046;10.760;2024-03-25T08:49:53;94933.03;;;6.28;41.42
63019;BME280;49105;46.046;10.760;2024-03-25T08:52:19;94927.00;;;6.32;40.80
63019;BME280;49105;46.046;10.760;2024-03-25T08:54:44;94922.00;;;6.36;40.35
63019;BME280;49105;46.046;10.760;2024-03-25T08:57:10;94916.22;;;6.44;39.81
63019;BME280;49105;46.046;10.760;2024-03-25T08:59:36;94920.44;;;6.55;40.19
63019;BME280;49105;46.046;10.760;2024-03-25T09:02:01;94910.94;;;6.69;40.79
63019;BME280;49105;46.046;10.760;2024-03-25T09:04:27;94905.41;;;6.81;40.75
63019;BME280;49105;46.046;10.760;2024-03-25T09:06:53;94899.84;;;6.93;40.53
63019;BME280;49105;46.046;10.760;2024-03-25T09:09:20;94903.00;;;7.00;40.86
63019;BME280;49105;46.046;10.760;2024-03-25T09:12:04;94896.13;;;7.09;40.25
63019;BME280;49105;46.046;10.760;2024-03-25T09:14:30;94891.88;;;7.18;39.07
63019;BME280;49105;46.046;10.760;2024-03-25T09:16:55;94886.84;;;7.27;39.41
63019;BME280;49105;46.046;10.760;2024-03-25T09:19:21;94881.03;;;7.30;39.42
63019;BME280;49105;46.046;10.760;2024-03-25T09:21:47;94876.00;;;7.39;40.04
63019;BME280;49105;46.046;10.760;2024-03-25T09:24:12;94867.25;;;7.49;40.33
63019;BME280;49105;46.046;10.760;2024-03-25T09:26:38;94862.47;;;7.56;39.96
63019;BME280;49105;46.046;10.760;2024-03-25T09:29:04;94865.84;;;7.66;40.46
63019;BME280;49105;46.046;10.760;2024-03-25T09:31:30;94864.19;;;7.81;40.34
63019;BME280;49105;46.046;10.760;2024-03-25T09:33:56;94850.66;;;7.92;40.43
63019;BME280;49105;46.046;10.760;2024-03-25T09:36:22;94845.84;;;8.05;40.62
63019;BME280;49105;46.046;10.760;2024-03-25T09:38:48;94839.44;;;8.16;39.80
63019;BME280;49105;46.046;10.760;2024-03-25T09:41:16;94840.41;;;8.25;39.91
63019;BME280;49105;46.046;10.760;2024-03-25T09:43:47;94830.56;;;8.36;39.62
63019;BME280;49105;46.046;10.760;2024-03-25T09:46:13;94827.31;;;8.49;39.45
63019;BME280;49105;46.046;10.760;2024-03-25T09:48:41;94819.78;;;8.61;37.09
63019;BME280;49105;46.046;10.760;2024-03-25T09:51:07;94819.13;;;8.75;35.96
63019;BME280;49105;46.046;10.760;2024-03-25T09:53:34;94807.41;;;8.86;35.55
63019;BME280;49105;46.046;10.760;2024-03-25T09:56:00;94808.56;;;8.99;34.48
63019;BME280;49105;46.046;10.760;2024-03-25T09:58:27;94800.50;;;9.09;33.39
63019;BME280;49105;46.046;10.760;2024-03-25T10:00:54;94785.56;;;9.23;33.46
63019;BME280;49105;46.046;10.760;2024-03-25T10:03:22;94788.06;;;9.33;32.91
63019;BME280;49105;46.046;10.760;2024-03-25T10:05:47;94791.66;;;9.42;32.43
63019;BME280;49105;46.046;10.760;2024-03-25T10:08:13;94785.44;;;9.52;31.16
63019;BME280;49105;46.046;10.760;2024-03-25T10:10:39;94786.66;;;9.60;31.35
63019;BME280;49105;46.046;10.760;2024-03-25T10:13:05;94768.06;;;9.65;30.71
63019;BME280;49105;46.046;10.760;2024-03-25T10:15:32;94765.84;;;9.72;30.68
63019;BME280;49105;46.046;10.760;2024-03-25T10:17:58;94761.78;;;9.80;30.38
63019;BME280;49105;46.046;10.760;2024-03-25T10:20:24;94763.56;;;9.84;30.83
63019;BME280;49105;46.046;10.760;2024-03-25T10:22:50;94754.97;;;9.92;29.38
63019;BME280;49105;46.046;10.760;2024-03-25T10:25:29;94767.22;;;10.02;29.07
63019;BME280;49105;46.046;10.760;2024-03-25T10:27:59;94749.91;;;10.10;29.47
63019;BME280;49105;46.046;10.760;2024-03-25T10:30:26;94754.44;;;10.23;28.84
63019;BME280;49105;46.046;10.760;2024-03-25T10:33:01;94742.75;;;10.29;27.96
63019;BME280;49105;46.046;10.760;2024-03-25T10:35:29;94748.22;;;10.47;27.80
63019;BME280;49105;46.046;10.760;2024-03-25T10:38:00;94738.63;;;10.64;27.70
63019;BME280;49105;46.046;10.760;2024-03-25T10:40:31;94738.25;;;10.71;27.67
63019;BME280;49105;46.046;10.760;2024-03-25T10:43:03;94732.66;;;10.73;27.36
63019;BME280;49105;46.046;10.760;2024-03-25T10:45:33;94733.53;;;10.68;27.00
63019;BME280;49105;46.046;10.760;2024-03-25T10:48:02;94723.94;;;10.72;27.20
63019;BME280;49105;46.046;10.760;2024-03-25T10:50:29;94727.75;;;10.80;27.20
63019;BME280;49105;46.046;10.760;2024-03-25T10:52:57;94723.75;;;10.82;27.73
63019;BME280;49105;46.046;10.760;2024-03-25T10:55:26;94719.50;;;10.81;27.61
63019;BME280;49105;46.046;10.760;2024-03-25T10:57:54;94714.59;;;10.88;27.80
63019;BME280;49105;46.046;10.760;2024-03-25T11:00:22;94722.63;;;10.97;27.33
63019;BME280;49105;46.046;10.760;2024-03-25T11:02:49;94713.19;;;11.05;27.89
63019;BME280;49105;46.046;10.760;2024-03-25T11:05:15;94712.00;;;11.11;27.52
63019;BME280;49105;46.046;10.760;2024-03-25T11:07:41;94707.88;;;11.18;28.14
63019;BME280;49105;46.046;10.760;2024-03-25T11:10:08;94702.88;;;11.17;27.04
63019;BME280;49105;46.046;10.760;2024-03-25T11:12:43;94703.97;;;11.16;27.12
63019;BME280;49105;46.046;10.760;2024-03-25T11:15:10;94693.13;;;11.26;26.60
63019;BME280;49105;46.046;10.760;2024-03-25T11:17:36;94691.81;;;11.37;26.57
63019;BME280;49105;46.046;10.760;2024-03-25T11:20:15;94691.69;;;11.42;26.73
63019;BME280;49105;46.046;10.760;2024-03-25T11:22:51;94679.91;;;11.49;26.49
63019;BME280;49105;46.046;10.760;2024-03-25T11:25:19;94688.53;;;11.54;26.38
63019;BME280;49105;46.046;10.760;2024-03-25T11:27:45;94680.75;;;11.58;26.73
63019;BME280;49105;46.046;10.760;2024-03-25T11:30:12;94683.09;;;11.59;26.34
63019;BME280;49105;46.046;10.760;2024-03-25T11:32:46;94683.09;;;11.59;26.30
63019;BME280;49105;46.046;10.760;2024-03-25T11:35:12;94685.56;;;11.56;26.21
63019;BME280;49105;46.046;10.760;2024-03-25T11:37:42;94681.84;;;11.57;26.82
63019;BME280;49105;46.046;10.760;2024-03-25T11:40:12;94677.50;;;11.61;26.26
63019;BME280;49105;46.046;10.760;2024-03-25T11:42:40;94675.81;;;11.65;25.69
63019;BME280;49105;46.046;10.760;2024-03-25T11:45:07;94657.00;;;11.75;25.69
63019;BME280;49105;46.046;10.760;2024-03-25T11:47:33;94662.25;;;11.89;25.42
63019;BME280;49105;46.046;10.760;2024-03-25T11:49:59;94655.56;;;11.91;25.32
63019;BME280;49105;46.046;10.760;2024-03-25T11:52:31;94658.06;;;11.97;25.27
63019;BME280;49105;46.046;10.760;2024-03-25T11:54:57;94657.47;;;12.00;25.19
63019;BME280;49105;46.046;10.760;2024-03-25T11:57:23;94650.97;;;12.06;24.86
63019;BME280;49105;46.046;10.760;2024-03-25T11:59:50;94640.81;;;12.08;25.05
63019;BME280;49105;46.046;10.760;2024-03-25T12:02:16;94646.72;;;12.05;24.92
63019;BME280;49105;46.046;10.760;2024-03-25T12:04:43;94637.22;;;12.04;24.76
63019;BME280;49105;46.046;10.760;2024-03-25T12:07:11;94642.38;;;12.09;25.14
63019;BME280;49105;46.046;10.760;2024-03-25T12:09:37;94638.66;;;12.10;24.88
63019;BME280;49105;46.046;10.760;2024-03-25T12:12:21;94626.19;;;12.10;24.99
63019;BME280;49105;46.046;10.760;2024-03-25T12:14:47;94619.47;;;12.22;24.69
63019;BME280;49105;46.046;10.760;2024-03-25T12:17:13;94624.03;;;12.30;24.95
63019;BME280;49105;46.046;10.760;2024-03-25T12:19:39;94606.28;;;12.30;24.60
63019;BME280;49105;46.046;10.760;2024-03-25T12:22:06;94611.25;;;12.32;25.08
63019;BME280;49105;46.046;10.760;2024-03-25T12:24:33;94608.94;;;12.30;24.32
63019;BME280;49105;46.046;10.760;2024-03-25T12:26:59;94607.81;;;12.31;24.78
63019;BME280;49105;46.046;10.760;2024-03-25T12:29:25;94610.03;;;12.47;25.33
63019;BME280;49105;46.046;10.760;2024-03-25T12:31:55;94596.66;;;12.60;24.67
63019;BME280;49105;46.046;10.760;2024-03-25T12:34:21;94591.78;;;12.54;24.19
63019;BME280;49105;46.046;10.760;2024-03-25T12:36:48;94600.69;;;12.58;24.43
63019;BME280;49105;46.046;10.760;2024-03-25T12:39:20;94588.81;;;12.47;24.43
63019;BME280;49105;46.046;10.760;2024-03-25T12:41:46;94576.78;;;12.49;24.37
63019;BME280;49105;46.046;10.760;2024-03-25T12:44:12;94591.63;;;12.59;24.36
63019;BME280;49105;46.046;10.760;2024-03-25T12:46:38;94592.13;;;12.61;24.08
63019;BME280;49105;46.046;10.760;2024-03-25T12:49:05;94587.13;;;12.59;24.15
63019;BME280;49105;46.046;10.760;2024-03-25T12:51:31;94586.19;;;12.64;24.55
63019;BME280;49105;46.046;10.760;2024-03-25T12:53:57;94585.41;;;12.63;24.16
63019;BME280;49105;46.046;10.760;2024-03-25T12:56:24;94562.00;;;12.65;24.95
63019;BME280;49105;46.046;10.760;2024-03-25T12:58:50;94575.44;;;12.78;24.11
63019;BME280;49105;46.046;10.760;2024-03-25T13:01:15;94570.28;;;12.81;24.42
63019;BME280;49105;46.046;10.760;2024-03-25T13:03:41;94566.06;;;12.89;24.27
63019;BME280;49105;46.046;10.760;2024-03-25T13:06:07;94570.59;;;12.88;24.25
63019;BME280;49105;46.046;10.760;2024-03-25T13:08:33;94569.34;;;12.86;24.82
63019;BME280;49105;46.046;10.760;2024-03-25T13:10:59;94567.28;;;12.83;24.57
63019;BME280;49105;46.046;10.760;2024-03-25T13:13:25;94569.00;;;12.79;24.00
63019;BME280;49105;46.046;10.760;2024-03-25T13:15:51;94568.84;;;12.75;24.17
63019;BME280;49105;46.046;10.760;2024-03-25T13:18:17;94565.91;;;12.77;24.01
63019;BME280;49105;46.046;10.760;2024-03-25T13:20:43;94561.38;;;12.86;23.88
63019;BME280;49105;46.046;10.760;2024-03-25T13:23:09;94566.69;;;12.86;24.47
63019;BME280;49105;46.046;10.760;2024-03-25T13:25:35;94556.84;;;12.86;24.39
63019;BME280;49105;46.046;10.760;2024-03-25T13:28:01;94554.00;;;12.91;24.28